createdAt,value
2019-03-29T00:27:24.141Z,1031.83
2019-03-29T00:27:24.714Z,1031.98
2019-03-29T00:27:25.314Z,1032.00
2019-03-29T00:27:25.914Z,1032.08
2019-03-29T00:27:26.514Z,1032.06
2019-03-29T00:27:27.125Z,1032.09
2019-03-29T00:27:27.713Z,1032.12
2019-03-29T00:27:28.312Z,1032.11
2019-03-29T00:28:21.851Z,1031.78
2019-03-29T00:28:22.366Z,1031.93
2019-03-29T00:28:22.980Z,1032.03
2019-03-29T00:28:23.568Z,1032.07
2019-03-29T00:28:24.166Z,1032.07
2019-03-29T00:28:24.765Z,1032.10
2019-03-29T00:28:25.365Z,1032.09
2019-03-29T00:28:25.965Z,1032.07
2019-03-29T00:29:20.445Z,1031.80
2019-03-29T00:29:21.043Z,1031.94
2019-03-29T00:29:21.642Z,1032.04
2019-03-29T00:29:22.241Z,1032.04
2019-03-29T00:29:22.925Z,1032.08
2019-03-29T00:29:23.449Z,1032.10
2019-03-29T00:29:24.042Z,1032.09
2019-03-29T00:29:24.642Z,1032.11
2019-03-29T00:30:19.121Z,1031.81
2019-03-29T00:30:19.718Z,1031.93
2019-03-29T00:30:20.365Z,1031.99
2019-03-29T00:30:21.981Z,1032.01
2019-03-29T00:30:22.121Z,1032.04
2019-03-29T00:30:22.325Z,1032.01
2019-03-29T00:30:22.719Z,1032.07
2019-03-29T00:30:23.316Z,1032.10
2019-03-29T00:31:17.798Z,1031.77
2019-03-29T00:31:18.394Z,1031.91
2019-03-29T00:31:18.996Z,1031.98
2019-03-29T00:31:19.595Z,1032.03
2019-03-29T00:31:20.194Z,1032.03
2019-03-29T00:31:20.794Z,1032.05
2019-03-29T00:31:21.394Z,1032.06
2019-03-29T00:31:21.992Z,1032.03
2019-03-29T00:32:16.475Z,1031.75
2019-03-29T00:32:17.070Z,1031.89
2019-03-29T00:32:17.676Z,1031.95
2019-03-29T00:32:18.270Z,1031.99
2019-03-29T00:32:18.870Z,1032.01
2019-03-29T00:32:19.469Z,1032.00
2019-03-29T00:32:20.071Z,1032.02
2019-03-29T00:32:20.671Z,1032.02
2019-03-29T00:33:15.173Z,1031.74
2019-03-29T00:33:15.747Z,1031.88
2019-03-29T00:33:16.347Z,1031.93
2019-03-29T00:33:16.946Z,1031.96
2019-03-29T00:33:17.549Z,1031.95
2019-03-29T00:33:18.147Z,1031.98
2019-03-29T00:33:18.744Z,1032.01
2019-03-29T00:33:19.346Z,1032.01
2019-03-29T00:34:12.803Z,1031.71
2019-03-29T00:34:13.400Z,1031.86
2019-03-29T00:34:14.001Z,1031.91
2019-03-29T00:34:15.928Z,1031.92
2019-03-29T00:34:15.946Z,1031.94
2019-03-29T00:34:16.063Z,1031.99
2019-03-29T00:34:16.400Z,1031.98
2019-03-29T00:34:16.999Z,1031.98
2019-03-29T00:35:10.454Z,1031.66
2019-03-29T00:35:11.051Z,1031.78
2019-03-29T00:35:11.652Z,1031.85
2019-03-29T00:35:12.251Z,1031.90
2019-03-29T00:35:12.852Z,1031.93
2019-03-29T00:35:13.451Z,1031.95
2019-03-29T00:35:14.051Z,1031.92
2019-03-29T00:35:14.651Z,1031.92
2019-03-29T00:36:08.107Z,1031.64
2019-03-29T00:36:08.704Z,1031.73
2019-03-29T00:36:09.305Z,1031.84
2019-03-29T00:36:09.904Z,1031.84
2019-03-29T00:36:10.503Z,1031.88
2019-03-29T00:36:11.105Z,1031.89
2019-03-29T00:36:11.702Z,1031.91
2019-03-29T00:36:12.303Z,1031.89
2019-03-29T00:37:05.759Z,1031.65
2019-03-29T00:37:06.358Z,1031.70
2019-03-29T00:37:06.955Z,1031.80
2019-03-29T00:37:07.560Z,1031.84
2019-03-29T00:37:08.157Z,1031.87
2019-03-29T00:37:08.755Z,1031.86
2019-03-29T00:37:09.357Z,1031.86
2019-03-29T00:37:09.956Z,1031.85
2019-03-29T00:38:04.458Z,1031.59
2019-03-29T00:38:05.030Z,1031.72
2019-03-29T00:38:05.630Z,1031.76
2019-03-29T00:38:06.231Z,1031.86
2019-03-29T00:38:06.831Z,1031.85
2019-03-29T00:38:07.432Z,1031.82
2019-03-29T00:38:08.033Z,1031.85
2019-03-29T00:38:08.630Z,1031.83
2019-03-29T00:39:03.110Z,1031.59
2019-03-29T00:39:03.706Z,1031.67
2019-03-29T00:39:04.306Z,1031.73
2019-03-29T00:39:04.906Z,1031.79
2019-03-29T00:39:05.505Z,1031.81
2019-03-29T00:39:06.115Z,1031.82
2019-03-29T00:39:06.706Z,1031.85
2019-03-29T00:39:07.306Z,1031.85
2019-03-29T00:40:01.785Z,1031.54
2019-03-29T00:40:02.382Z,1031.66
2019-03-29T00:40:02.982Z,1031.74
2019-03-29T00:40:03.582Z,1031.76
2019-03-29T00:40:04.181Z,1031.80
2019-03-29T00:40:04.781Z,1031.81
2019-03-29T00:40:05.385Z,1031.83
2019-03-29T00:40:06.318Z,1031.82
2019-03-29T00:40:59.438Z,1031.54
2019-03-29T00:41:00.036Z,1031.60
2019-03-29T00:41:00.637Z,1031.70
2019-03-29T00:41:01.234Z,1031.73
2019-03-29T00:41:01.836Z,1031.78
2019-03-29T00:41:02.438Z,1031.78
2019-03-29T00:41:03.035Z,1031.75
2019-03-29T00:41:03.635Z,1031.78
2019-03-29T00:41:58.114Z,1031.48
2019-03-29T00:41:58.710Z,1031.60
2019-03-29T00:41:59.309Z,1031.69
2019-03-29T00:41:59.909Z,1031.71
2019-03-29T00:42:00.512Z,1031.73
2019-03-29T00:42:01.108Z,1031.75
2019-03-29T00:42:01.710Z,1031.78
2019-03-29T00:42:02.308Z,1031.82
2019-03-29T00:42:56.813Z,1031.50
2019-03-29T00:42:57.393Z,1031.57
2019-03-29T00:42:57.986Z,1031.65
2019-03-29T00:42:58.587Z,1031.71
2019-03-29T00:42:59.186Z,1031.73
2019-03-29T00:42:59.789Z,1031.74
2019-03-29T00:43:00.385Z,1031.76
2019-03-29T00:43:00.986Z,1031.78
2019-03-29T00:43:54.445Z,1031.46
2019-03-29T00:43:55.039Z,1031.51
2019-03-29T00:43:55.639Z,1031.64
2019-03-29T00:43:56.238Z,1031.71
2019-03-29T00:43:56.838Z,1031.69
2019-03-29T00:43:57.447Z,1031.70
2019-03-29T00:43:58.038Z,1031.74
2019-03-29T00:43:58.643Z,1031.71
2019-03-29T00:44:52.201Z,1031.47
2019-03-29T00:44:52.902Z,1031.51
2019-03-29T00:44:53.293Z,1031.62
2019-03-29T00:44:53.892Z,1031.68
2019-03-29T00:44:54.492Z,1031.70
2019-03-29T00:44:55.093Z,1031.72
2019-03-29T00:44:55.694Z,1031.73
2019-03-29T00:44:56.292Z,1031.73
2019-03-29T00:45:49.744Z,1031.46
2019-03-29T00:45:50.343Z,1031.55
2019-03-29T00:45:50.942Z,1031.63
2019-03-29T00:45:51.563Z,1031.69
2019-03-29T00:45:52.143Z,1031.66
2019-03-29T00:45:52.741Z,1031.68
2019-03-29T00:45:53.342Z,1031.72
2019-03-29T00:45:53.947Z,1031.71
2019-03-29T00:46:48.420Z,1031.41
2019-03-29T00:46:49.016Z,1031.50
2019-03-29T00:46:49.617Z,1031.60
2019-03-29T00:46:50.216Z,1031.63
2019-03-29T00:46:50.818Z,1031.66
2019-03-29T00:46:51.416Z,1031.68
2019-03-29T00:46:52.018Z,1031.66
2019-03-29T00:46:52.615Z,1031.68
2019-03-29T00:47:46.105Z,1031.42
2019-03-29T00:47:46.671Z,1031.50
2019-03-29T00:47:47.269Z,1031.61
2019-03-29T00:47:47.870Z,1031.61
2019-03-29T00:47:48.469Z,1031.65
2019-03-29T00:47:49.068Z,1031.67
2019-03-29T00:47:49.670Z,1031.68
2019-03-29T00:47:50.269Z,1031.70
2019-03-29T00:48:44.749Z,1031.43
2019-03-29T00:48:45.344Z,1031.47
2019-03-29T00:48:45.943Z,1031.55
2019-03-29T00:48:47.379Z,1031.63
2019-03-29T00:48:47.420Z,1031.59
2019-03-29T00:48:48.160Z,1031.68
2019-03-29T00:48:48.380Z,1031.70
2019-03-29T00:48:48.960Z,1031.69
2019-03-29T00:49:42.402Z,1031.47
2019-03-29T00:49:42.999Z,1031.51
2019-03-29T00:49:43.597Z,1031.60
2019-03-29T00:49:44.196Z,1031.65
2019-03-29T00:49:44.809Z,1031.66
2019-03-29T00:49:45.401Z,1031.66
2019-03-29T00:49:45.997Z,1031.68
2019-03-29T00:49:46.596Z,1031.66
2019-03-29T00:50:40.052Z,1031.44
2019-03-29T00:50:40.662Z,1031.49
2019-03-29T00:50:41.248Z,1031.56
2019-03-29T00:50:41.848Z,1031.60
2019-03-29T00:50:42.448Z,1031.58
2019-03-29T00:50:43.048Z,1031.65
2019-03-29T00:50:43.649Z,1031.65
2019-03-29T00:50:44.250Z,1031.66
2019-03-29T00:51:37.704Z,1031.41
2019-03-29T00:51:38.302Z,1031.47
2019-03-29T00:51:38.929Z,1031.53
2019-03-29T00:51:39.500Z,1031.57
2019-03-29T00:51:40.108Z,1031.61
2019-03-29T00:51:40.700Z,1031.63
2019-03-29T00:51:41.300Z,1031.67
2019-03-29T00:51:41.899Z,1031.66
2019-03-29T00:52:35.364Z,1031.43
2019-03-29T00:52:35.951Z,1031.49
2019-03-29T00:52:36.551Z,1031.55
2019-03-29T00:52:37.154Z,1031.61
2019-03-29T00:52:37.756Z,1031.63
2019-03-29T00:52:38.353Z,1031.65
2019-03-29T00:52:38.952Z,1031.64
2019-03-29T00:52:39.551Z,1031.66
2019-03-29T00:53:34.062Z,1031.41
2019-03-29T00:53:35.234Z,1031.49
2019-03-29T00:53:35.912Z,1031.54
2019-03-29T00:53:35.925Z,1031.59
2019-03-29T00:53:36.426Z,1031.61
2019-03-29T00:53:37.031Z,1031.64
2019-03-29T00:53:37.629Z,1031.62
2019-03-29T00:53:38.227Z,1031.66
2019-03-29T00:54:31.788Z,1031.42
2019-03-29T00:54:32.382Z,1031.49
2019-03-29T00:54:32.982Z,1031.54
2019-03-29T00:54:33.583Z,1031.57
2019-03-29T00:54:34.182Z,1031.61
2019-03-29T00:54:34.783Z,1031.63
2019-03-29T00:54:35.380Z,1031.62
2019-03-29T00:54:35.982Z,1031.62
2019-03-29T00:55:29.444Z,1031.44
2019-03-29T00:55:30.033Z,1031.51
2019-03-29T00:55:30.632Z,1031.57
2019-03-29T00:55:31.231Z,1031.58
2019-03-29T00:55:31.830Z,1031.63
2019-03-29T00:55:32.432Z,1031.61
2019-03-29T00:55:33.031Z,1031.62
2019-03-29T00:55:33.631Z,1031.64
2019-03-29T00:56:27.090Z,1031.45
2019-03-29T00:56:27.685Z,1031.53
2019-03-29T00:56:28.285Z,1031.56
2019-03-29T00:56:28.887Z,1031.59
2019-03-29T00:56:29.485Z,1031.63
2019-03-29T00:56:30.085Z,1031.67
2019-03-29T00:56:30.687Z,1031.68
2019-03-29T00:56:31.285Z,1031.64
2019-03-29T00:57:24.740Z,1031.48
2019-03-29T00:57:25.338Z,1031.52
2019-03-29T00:57:25.937Z,1031.60
2019-03-29T00:57:26.538Z,1031.64
2019-03-29T00:57:27.136Z,1031.62
2019-03-29T00:57:27.738Z,1031.63
2019-03-29T00:57:28.338Z,1031.63
2019-03-29T00:57:28.937Z,1031.67
2019-03-29T00:58:23.417Z,1031.48
2019-03-29T00:58:24.012Z,1031.50
2019-03-29T00:58:24.611Z,1031.56
2019-03-29T00:58:25.211Z,1031.63
2019-03-29T00:58:25.811Z,1031.63
2019-03-29T00:58:26.412Z,1031.64
2019-03-29T00:58:27.011Z,1031.65
2019-03-29T00:58:27.611Z,1031.65
2019-03-29T00:59:22.115Z,1031.49
2019-03-29T00:59:22.687Z,1031.53
2019-03-29T00:59:23.290Z,1031.56
2019-03-29T00:59:23.887Z,1031.59
2019-03-29T00:59:24.487Z,1031.63
2019-03-29T00:59:25.090Z,1031.66
2019-03-29T00:59:25.689Z,1031.64
2019-03-29T00:59:26.287Z,1031.68
2019-03-29T01:00:20.767Z,1031.52
2019-03-29T01:00:21.370Z,1031.54
2019-03-29T01:00:21.965Z,1031.58
2019-03-29T01:00:22.564Z,1031.60
2019-03-29T01:00:23.163Z,1031.59
2019-03-29T01:00:23.762Z,1031.66
2019-03-29T01:00:24.363Z,1031.66
2019-03-29T01:00:24.963Z,1031.65
2019-03-29T01:01:19.443Z,1031.52
2019-03-29T01:01:20.045Z,1031.52
2019-03-29T01:01:20.643Z,1031.58
2019-03-29T01:01:21.242Z,1031.61
2019-03-29T01:01:21.842Z,1031.63
2019-03-29T01:01:22.439Z,1031.65
2019-03-29T01:01:23.041Z,1031.68
2019-03-29T01:01:23.639Z,1031.64
2019-03-29T01:02:17.095Z,1031.53
2019-03-29T01:02:18.931Z,1031.55
2019-03-29T01:02:19.043Z,1031.60
2019-03-29T01:02:19.089Z,1031.57
2019-03-29T01:02:19.496Z,1031.60
2019-03-29T01:02:20.094Z,1031.64
2019-03-29T01:02:20.691Z,1031.66
2019-03-29T01:02:21.290Z,1031.68
2019-03-29T01:03:14.749Z,1031.50
2019-03-29T01:03:15.344Z,1031.54
2019-03-29T01:03:15.944Z,1031.60
2019-03-29T01:03:16.545Z,1031.64
2019-03-29T01:03:17.142Z,1031.64
2019-03-29T01:03:17.744Z,1031.66
2019-03-29T01:03:18.345Z,1031.64
2019-03-29T01:03:18.942Z,1031.64
2019-03-29T01:04:13.447Z,1031.52
2019-03-29T01:04:14.019Z,1031.55
2019-03-29T01:04:14.619Z,1031.60
2019-03-29T01:04:15.219Z,1031.62
2019-03-29T01:04:15.819Z,1031.66
2019-03-29T01:04:16.419Z,1031.69
2019-03-29T01:04:17.022Z,1031.72
2019-03-29T01:04:17.617Z,1031.67
2019-03-29T01:05:12.098Z,1031.51
2019-03-29T01:05:12.698Z,1031.56
2019-03-29T01:05:13.298Z,1031.57
2019-03-29T01:05:13.893Z,1031.58
2019-03-29T01:05:14.492Z,1031.58
2019-03-29T01:05:15.092Z,1031.62
2019-03-29T01:05:15.693Z,1031.61
2019-03-29T01:05:16.325Z,1031.68
2019-03-29T01:06:09.750Z,1031.48
2019-03-29T01:06:10.349Z,1031.52
2019-03-29T01:06:10.948Z,1031.56
2019-03-29T01:06:12.304Z,1031.60
2019-03-29T01:06:12.895Z,1031.57
2019-03-29T01:06:13.072Z,1031.63
2019-03-29T01:06:13.346Z,1031.63
2019-03-29T01:06:13.948Z,1031.64
2019-03-29T01:07:08.426Z,1031.49
2019-03-29T01:07:09.022Z,1031.54
2019-03-29T01:07:09.621Z,1031.54
2019-03-29T01:07:10.222Z,1031.62
2019-03-29T01:07:10.824Z,1031.60
2019-03-29T01:07:11.421Z,1031.59
2019-03-29T01:07:12.022Z,1031.64
2019-03-29T01:07:12.621Z,1031.64
2019-03-29T01:08:07.977Z,1031.53
2019-03-29T01:08:08.347Z,1031.49
2019-03-29T01:08:09.458Z,1031.58
2019-03-29T01:08:10.215Z,1031.58
2019-03-29T01:08:10.288Z,1031.59
2019-03-29T01:08:10.486Z,1031.59
2019-03-29T01:08:10.536Z,1031.63
2019-03-29T01:08:10.779Z,1031.61
2019-03-29T01:09:04.992Z,1031.50
2019-03-29T01:09:05.351Z,1031.54
2019-03-29T01:09:05.950Z,1031.52
2019-03-29T01:09:06.554Z,1031.57
2019-03-29T01:09:07.149Z,1031.60
2019-03-29T01:09:07.750Z,1031.62
2019-03-29T01:09:08.349Z,1031.65
2019-03-29T01:09:08.949Z,1031.65
2019-03-29T01:10:03.430Z,1031.50
2019-03-29T01:10:04.026Z,1031.55
2019-03-29T01:10:04.628Z,1031.56
2019-03-29T01:10:05.229Z,1031.57
2019-03-29T01:10:05.825Z,1031.59
2019-03-29T01:10:06.425Z,1031.62
2019-03-29T01:10:07.025Z,1031.58
2019-03-29T01:10:07.627Z,1031.61
2019-03-29T01:11:02.105Z,1031.49
2019-03-29T01:11:02.704Z,1031.52
2019-03-29T01:11:03.301Z,1031.56
2019-03-29T01:11:03.903Z,1031.57
2019-03-29T01:11:04.501Z,1031.62
2019-03-29T01:11:05.100Z,1031.61
2019-03-29T01:11:05.700Z,1031.65
2019-03-29T01:11:06.299Z,1031.64
2019-03-29T01:11:59.757Z,1031.51
2019-03-29T01:12:00.354Z,1031.55
2019-03-29T01:12:00.955Z,1031.54
2019-03-29T01:12:01.554Z,1031.58
2019-03-29T01:12:02.152Z,1031.59
2019-03-29T01:12:02.754Z,1031.64
2019-03-29T01:12:03.353Z,1031.65
2019-03-29T01:12:03.953Z,1031.63
2019-03-29T01:12:57.408Z,1031.46
2019-03-29T01:12:58.892Z,1031.55
2019-03-29T01:12:59.025Z,1031.53
2019-03-29T01:12:59.251Z,1031.57
2019-03-29T01:12:59.804Z,1031.58
2019-03-29T01:13:00.407Z,1031.59
2019-03-29T01:13:01.004Z,1031.59
2019-03-29T01:13:01.604Z,1031.61
2019-03-29T01:13:55.075Z,1031.52
2019-03-29T01:13:55.657Z,1031.53
2019-03-29T01:13:56.256Z,1031.56
2019-03-29T01:13:56.856Z,1031.57
2019-03-29T01:13:57.457Z,1031.59
2019-03-29T01:13:58.057Z,1031.55
2019-03-29T01:13:58.656Z,1031.63
2019-03-29T01:13:59.256Z,1031.60
2019-03-29T01:14:52.734Z,1031.50
2019-03-29T01:14:53.309Z,1031.54
2019-03-29T01:14:53.910Z,1031.55
2019-03-29T01:14:54.510Z,1031.55
2019-03-29T01:14:55.108Z,1031.57
2019-03-29T01:14:55.712Z,1031.58
2019-03-29T01:14:56.310Z,1031.60
2019-03-29T01:14:56.910Z,1031.59
2019-03-29T01:15:50.363Z,1031.51
2019-03-29T01:15:50.962Z,1031.54
2019-03-29T01:15:51.561Z,1031.57
2019-03-29T01:15:52.163Z,1031.59
2019-03-29T01:15:52.760Z,1031.59
2019-03-29T01:15:53.361Z,1031.63
2019-03-29T01:15:53.961Z,1031.62
2019-03-29T01:15:54.566Z,1031.63
2019-03-29T01:16:49.038Z,1031.55
2019-03-29T01:16:49.640Z,1031.53
2019-03-29T01:16:50.235Z,1031.58
2019-03-29T01:16:50.836Z,1031.59
2019-03-29T01:16:51.437Z,1031.57
2019-03-29T01:16:52.035Z,1031.59
2019-03-29T01:16:53.878Z,1031.61
2019-03-29T01:16:53.942Z,1031.60
2019-03-29T01:17:47.716Z,1031.54
2019-03-29T01:17:48.329Z,1031.58
2019-03-29T01:17:48.912Z,1031.57
2019-03-29T01:17:49.511Z,1031.63
2019-03-29T01:17:50.111Z,1031.62
2019-03-29T01:17:50.710Z,1031.61
2019-03-29T01:17:51.311Z,1031.62
2019-03-29T01:17:51.910Z,1031.64
2019-03-29T01:18:45.367Z,1031.52
2019-03-29T01:18:45.964Z,1031.55
2019-03-29T01:18:46.564Z,1031.54
2019-03-29T01:18:47.163Z,1031.58
2019-03-29T01:18:47.764Z,1031.62
2019-03-29T01:18:48.364Z,1031.63
2019-03-29T01:18:48.962Z,1031.60
2019-03-29T01:18:49.563Z,1031.62
2019-03-29T01:19:44.042Z,1031.52
2019-03-29T01:19:44.639Z,1031.52
2019-03-29T01:19:45.239Z,1031.55
2019-03-29T01:19:45.842Z,1031.55
2019-03-29T01:19:46.476Z,1031.59
2019-03-29T01:19:47.037Z,1031.56
2019-03-29T01:19:47.638Z,1031.59
2019-03-29T01:19:48.238Z,1031.61
2019-03-29T01:20:42.741Z,1031.47
2019-03-29T01:20:43.314Z,1031.51
2019-03-29T01:20:43.913Z,1031.52
2019-03-29T01:20:44.513Z,1031.55
2019-03-29T01:20:45.116Z,1031.56
2019-03-29T01:20:45.716Z,1031.57
2019-03-29T01:20:46.384Z,1031.57
2019-03-29T01:20:47.982Z,1031.55
2019-03-29T01:21:40.371Z,1031.44
2019-03-29T01:21:40.970Z,1031.47
2019-03-29T01:21:41.565Z,1031.50
2019-03-29T01:21:42.165Z,1031.54
2019-03-29T01:21:42.765Z,1031.53
2019-03-29T01:21:43.365Z,1031.55
2019-03-29T01:21:43.982Z,1031.48
2019-03-29T01:21:44.567Z,1031.57
2019-03-29T01:22:39.046Z,1031.42
2019-03-29T01:22:39.642Z,1031.46
2019-03-29T01:22:40.248Z,1031.51
2019-03-29T01:22:40.841Z,1031.52
2019-03-29T01:22:41.440Z,1031.54
2019-03-29T01:22:42.039Z,1031.54
2019-03-29T01:22:42.647Z,1031.54
2019-03-29T01:22:43.239Z,1031.57
2019-03-29T01:23:36.698Z,1031.47
2019-03-29T01:23:37.296Z,1031.47
2019-03-29T01:23:37.895Z,1031.48
2019-03-29T01:23:38.494Z,1031.52
2019-03-29T01:23:39.093Z,1031.50
2019-03-29T01:23:39.693Z,1031.54
2019-03-29T01:23:40.294Z,1031.55
2019-03-29T01:23:40.905Z,1031.56
2019-03-29T01:24:34.350Z,1031.41
2019-03-29T01:24:34.946Z,1031.44
2019-03-29T01:24:35.545Z,1031.50
2019-03-29T01:24:36.146Z,1031.52
2019-03-29T01:24:36.745Z,1031.54
2019-03-29T01:24:37.346Z,1031.55
2019-03-29T01:24:37.944Z,1031.57
2019-03-29T01:24:38.547Z,1031.55
2019-03-29T01:25:32.026Z,1031.39
2019-03-29T01:25:32.597Z,1031.47
2019-03-29T01:25:33.196Z,1031.47
2019-03-29T01:25:35.101Z,1031.51
2019-03-29T01:25:35.122Z,1031.49
2019-03-29T01:25:35.227Z,1031.54
2019-03-29T01:25:35.596Z,1031.52
2019-03-29T01:25:36.199Z,1031.56
2019-03-29T01:26:30.675Z,1031.45
2019-03-29T01:26:31.272Z,1031.43
2019-03-29T01:26:31.874Z,1031.48
2019-03-29T01:26:32.471Z,1031.46
2019-03-29T01:26:33.071Z,1031.51
2019-03-29T01:26:33.675Z,1031.49
2019-03-29T01:26:34.272Z,1031.48
2019-03-29T01:26:34.870Z,1031.53
2019-03-29T01:27:28.330Z,1031.42
2019-03-29T01:27:28.927Z,1031.45
2019-03-29T01:27:29.525Z,1031.45
2019-03-29T01:27:30.125Z,1031.46
2019-03-29T01:27:30.725Z,1031.47
2019-03-29T01:27:31.326Z,1031.49
2019-03-29T01:27:31.924Z,1031.52
2019-03-29T01:27:32.524Z,1031.48
2019-03-29T01:28:27.009Z,1031.42
2019-03-29T01:28:27.602Z,1031.44
2019-03-29T01:28:28.201Z,1031.44
2019-03-29T01:28:28.799Z,1031.44
2019-03-29T01:28:29.400Z,1031.46
2019-03-29T01:28:29.999Z,1031.48
2019-03-29T01:28:30.603Z,1031.47
2019-03-29T01:28:31.201Z,1031.53
2019-03-29T01:29:25.682Z,1031.40
2019-03-29T01:29:26.276Z,1031.42
2019-03-29T01:29:26.876Z,1031.45
2019-03-29T01:29:27.479Z,1031.46
2019-03-29T01:29:28.076Z,1031.49
2019-03-29T01:29:28.678Z,1031.50
2019-03-29T01:29:29.309Z,1031.51
2019-03-29T01:29:30.932Z,1031.51
2019-03-29T01:30:23.354Z,1031.39
2019-03-29T01:30:23.929Z,1031.43
2019-03-29T01:30:24.528Z,1031.43
2019-03-29T01:30:25.134Z,1031.45
2019-03-29T01:30:25.728Z,1031.44
2019-03-29T01:30:26.328Z,1031.46
2019-03-29T01:30:26.927Z,1031.45
2019-03-29T01:30:27.528Z,1031.47
2019-03-29T01:31:22.006Z,1031.34
2019-03-29T01:31:22.603Z,1031.40
2019-03-29T01:31:23.204Z,1031.40
2019-03-29T01:31:23.806Z,1031.41
2019-03-29T01:31:24.403Z,1031.40
2019-03-29T01:31:25.003Z,1031.46
2019-03-29T01:31:25.602Z,1031.46
2019-03-29T01:31:26.209Z,1031.47
2019-03-29T01:32:19.659Z,1031.36
2019-03-29T01:32:20.258Z,1031.40
2019-03-29T01:32:20.858Z,1031.43
2019-03-29T01:32:21.459Z,1031.43
2019-03-29T01:32:22.060Z,1031.41
2019-03-29T01:32:22.656Z,1031.41
2019-03-29T01:32:23.256Z,1031.45
2019-03-29T01:32:23.855Z,1031.44
2019-03-29T01:33:17.311Z,1031.37
2019-03-29T01:33:17.907Z,1031.38
2019-03-29T01:33:18.507Z,1031.41
2019-03-29T01:33:19.107Z,1031.41
2019-03-29T01:33:19.734Z,1031.40
2019-03-29T01:33:20.308Z,1031.40
2019-03-29T01:33:20.906Z,1031.45
2019-03-29T01:33:21.507Z,1031.41
2019-03-29T01:34:14.962Z,1031.36
2019-03-29T01:34:16.986Z,1031.37
2019-03-29T01:34:16.989Z,1031.36
2019-03-29T01:34:17.145Z,1031.42
2019-03-29T01:34:17.377Z,1031.41
2019-03-29T01:34:17.964Z,1031.42
2019-03-29T01:34:18.558Z,1031.44
2019-03-29T01:34:19.158Z,1031.45
2019-03-29T01:35:13.668Z,1031.34
2019-03-29T01:35:14.234Z,1031.38
2019-03-29T01:35:14.835Z,1031.42
2019-03-29T01:35:15.434Z,1031.42
2019-03-29T01:35:16.034Z,1031.45
2019-03-29T01:35:16.634Z,1031.46
2019-03-29T01:35:17.233Z,1031.46
2019-03-29T01:35:17.834Z,1031.47
2019-03-29T01:36:11.293Z,1031.36
2019-03-29T01:36:11.885Z,1031.37
2019-03-29T01:36:12.489Z,1031.40
2019-03-29T01:36:13.087Z,1031.42
2019-03-29T01:36:13.687Z,1031.44
2019-03-29T01:36:14.287Z,1031.45
2019-03-29T01:36:14.888Z,1031.45
2019-03-29T01:36:15.487Z,1031.47
2019-03-29T01:37:08.942Z,1031.38
2019-03-29T01:37:09.539Z,1031.42
2019-03-29T01:37:10.140Z,1031.42
2019-03-29T01:37:10.740Z,1031.44
2019-03-29T01:37:11.338Z,1031.45
2019-03-29T01:37:11.939Z,1031.46
2019-03-29T01:37:12.539Z,1031.44
2019-03-29T01:37:13.140Z,1031.44
2019-03-29T01:38:20.452Z,1031.35
2019-03-29T01:38:20.714Z,1031.38
2019-03-29T01:38:20.761Z,1031.37
2019-03-29T01:38:21.083Z,1031.39
2019-03-29T01:38:21.110Z,1031.44
2019-03-29T01:38:21.229Z,1031.43
2019-03-29T01:38:21.239Z,1031.44
2019-03-29T01:38:21.262Z,1031.45
2019-03-29T01:39:05.370Z,1031.35
2019-03-29T01:39:05.968Z,1031.36
2019-03-29T01:39:06.567Z,1031.42
2019-03-29T01:39:07.167Z,1031.43
2019-03-29T01:39:07.767Z,1031.46
2019-03-29T01:39:08.366Z,1031.44
2019-03-29T01:39:08.965Z,1031.45
2019-03-29T01:39:09.566Z,1031.46
2019-03-29T01:40:04.049Z,1031.36
2019-03-29T01:40:04.643Z,1031.35
2019-03-29T01:40:05.246Z,1031.37
2019-03-29T01:40:05.843Z,1031.40
2019-03-29T01:40:06.442Z,1031.42
2019-03-29T01:40:07.043Z,1031.45
2019-03-29T01:40:08.933Z,1031.44
2019-03-29T01:40:09.000Z,1031.42
2019-03-29T01:41:01.724Z,1031.30
2019-03-29T01:41:02.296Z,1031.38
2019-03-29T01:41:02.895Z,1031.38
2019-03-29T01:41:03.494Z,1031.37
2019-03-29T01:41:04.095Z,1031.41
2019-03-29T01:41:04.708Z,1031.41
2019-03-29T01:41:05.294Z,1031.38
2019-03-29T01:41:05.894Z,1031.44
2019-03-29T01:42:00.388Z,1031.31
2019-03-29T01:42:00.971Z,1031.34
2019-03-29T01:42:01.569Z,1031.37
2019-03-29T01:42:02.170Z,1031.39
2019-03-29T01:42:02.770Z,1031.39
2019-03-29T01:42:03.369Z,1031.42
2019-03-29T01:42:03.970Z,1031.44
2019-03-29T01:42:04.569Z,1031.42
2019-03-29T01:42:58.026Z,1031.32
2019-03-29T01:42:58.623Z,1031.34
2019-03-29T01:42:59.224Z,1031.41
2019-03-29T01:42:59.823Z,1031.42
2019-03-29T01:43:00.422Z,1031.41
2019-03-29T01:43:01.024Z,1031.40
2019-03-29T01:43:01.626Z,1031.40
2019-03-29T01:43:02.223Z,1031.41
2019-03-29T01:43:55.679Z,1031.33
2019-03-29T01:43:56.275Z,1031.36
2019-03-29T01:43:56.874Z,1031.40
2019-03-29T01:43:57.474Z,1031.40
2019-03-29T01:43:58.075Z,1031.45
2019-03-29T01:43:58.676Z,1031.44
2019-03-29T01:43:59.274Z,1031.46
2019-03-29T01:43:59.874Z,1031.41
2019-03-29T01:44:53.881Z,1031.38
2019-03-29T01:44:53.927Z,1031.36
2019-03-29T01:44:54.527Z,1031.41
2019-03-29T01:44:55.127Z,1031.44
2019-03-29T01:44:55.729Z,1031.42
2019-03-29T01:44:56.328Z,1031.45
2019-03-29T01:44:56.926Z,1031.46
2019-03-29T01:44:57.526Z,1031.44
2019-03-29T01:45:51.012Z,1031.34
2019-03-29T01:45:51.578Z,1031.40
2019-03-29T01:45:52.178Z,1031.38
2019-03-29T01:45:52.778Z,1031.45
2019-03-29T01:45:53.377Z,1031.42
2019-03-29T01:45:53.979Z,1031.45
2019-03-29T01:45:54.580Z,1031.43
2019-03-29T01:45:55.178Z,1031.47
2019-03-29T01:46:49.658Z,1031.33
2019-03-29T01:46:50.253Z,1031.37
2019-03-29T01:46:50.852Z,1031.38
2019-03-29T01:46:51.453Z,1031.41
2019-03-29T01:46:52.053Z,1031.40
2019-03-29T01:46:52.655Z,1031.44
2019-03-29T01:46:53.251Z,1031.41
2019-03-29T01:46:53.852Z,1031.43
2019-03-29T01:47:47.310Z,1031.36
2019-03-29T01:47:47.906Z,1031.34
2019-03-29T01:47:48.506Z,1031.39
2019-03-29T01:47:49.106Z,1031.38
2019-03-29T01:47:49.706Z,1031.41
2019-03-29T01:47:50.306Z,1031.41
2019-03-29T01:47:50.905Z,1031.45
2019-03-29T01:47:51.505Z,1031.44
2019-03-29T01:48:45.983Z,1031.30
2019-03-29T01:48:46.583Z,1031.39
2019-03-29T01:48:47.224Z,1031.37
2019-03-29T01:48:48.898Z,1031.39
2019-03-29T01:48:49.092Z,1031.40
2019-03-29T01:48:49.179Z,1031.41
2019-03-29T01:48:49.579Z,1031.42
2019-03-29T01:48:50.182Z,1031.41
2019-03-29T01:49:43.639Z,1031.35
2019-03-29T01:49:44.234Z,1031.39
2019-03-29T01:49:44.841Z,1031.41
2019-03-29T01:49:45.436Z,1031.41
2019-03-29T01:49:46.031Z,1031.43
2019-03-29T01:49:46.633Z,1031.44
2019-03-29T01:49:47.231Z,1031.45
2019-03-29T01:49:47.834Z,1031.42
2019-03-29T01:50:42.310Z,1031.31
2019-03-29T01:50:42.907Z,1031.31
2019-03-29T01:50:43.509Z,1031.38
2019-03-29T01:50:44.108Z,1031.40
2019-03-29T01:50:44.707Z,1031.44
2019-03-29T01:50:45.307Z,1031.43
2019-03-29T01:50:45.909Z,1031.43
2019-03-29T01:50:46.508Z,1031.46
2019-03-29T01:51:41.019Z,1031.37
2019-03-29T01:51:41.583Z,1031.37
2019-03-29T01:51:42.184Z,1031.38
2019-03-29T01:51:42.783Z,1031.38
2019-03-29T01:51:43.384Z,1031.41
2019-03-29T01:51:43.985Z,1031.41
2019-03-29T01:51:44.583Z,1031.43
2019-03-29T01:51:45.183Z,1031.40
2019-03-29T01:52:38.640Z,1031.37
2019-03-29T01:52:39.237Z,1031.39
2019-03-29T01:52:39.836Z,1031.40
2019-03-29T01:52:40.435Z,1031.38
2019-03-29T01:52:41.044Z,1031.42
2019-03-29T01:52:41.639Z,1031.45
2019-03-29T01:52:42.235Z,1031.40
2019-03-29T01:52:42.835Z,1031.46
2019-03-29T01:53:37.986Z,1031.35
2019-03-29T01:53:38.016Z,1031.38
2019-03-29T01:53:38.511Z,1031.38
2019-03-29T01:53:39.113Z,1031.40
2019-03-29T01:53:39.711Z,1031.40
2019-03-29T01:53:40.311Z,1031.44
2019-03-29T01:53:40.911Z,1031.42
2019-03-29T01:53:41.510Z,1031.45
2019-03-29T01:54:34.967Z,1031.32
2019-03-29T01:54:35.563Z,1031.34
2019-03-29T01:54:36.164Z,1031.38
2019-03-29T01:54:36.764Z,1031.38
2019-03-29T01:54:37.364Z,1031.40
2019-03-29T01:54:37.962Z,1031.40